TimePDT,TemperatureF,Dew PointF,Humidity,Sea Level PressureIn,VisibilityMPH,Wind Direction,Wind SpeedMPH,Gust SpeedMPH,PrecipitationIn,Events,Conditions,WindDirDegrees,DateUTC
12:15 AM,62.6,53.6,72,29.89,10.0,SE,13.8,-,N/A,,Mostly Cloudy,140,2012-10-31 07:15:00
12:35 AM,60.8,53.6,77,29.89,10.0,SE,15.0,18.4,N/A,,Mostly Cloudy,140,2012-10-31 07:35:00
12:55 AM,60.8,53.6,77,29.89,10.0,SE,17.3,21.9,N/A,,Mostly Cloudy,140,2012-10-31 07:55:00
1:15 AM,60.8,53.6,77,29.89,10.0,SE,17.3,23.0,N/A,,Mostly Cloudy,140,2012-10-31 08:15:00
1:35 AM,59.0,53.6,82,29.88,10.0,SE,16.1,21.9,N/A,,Mostly Cloudy,140,2012-10-31 08:35:00
1:55 AM,59.0,55.4,88,29.88,10.0,SE,17.3,24.2,N/A,,Mostly Cloudy,140,2012-10-31 08:55:00
2:15 AM,59.0,53.6,82,29.87,10.0,SSE,15.0,29.9,N/A,,Mostly Cloudy,150,2012-10-31 09:15:00
2:35 AM,59.0,53.6,82,29.87,10.0,SE,16.1,23.0,N/A,,Mostly Cloudy,140,2012-10-31 09:35:00
2:55 AM,59.0,53.6,82,29.86,10.0,SE,17.3,-,N/A,,Overcast,140,2012-10-31 09:55:00
3:15 AM,59.0,53.6,82,29.85,10.0,SE,17.3,25.3,N/A,,Mostly Cloudy,140,2012-10-31 10:15:00
3:35 AM,59.0,51.8,77,29.84,10.0,SE,21.9,29.9,N/A,,Partly Cloudy,140,2012-10-31 10:35:00
3:55 AM,59.0,51.8,77,29.83,10.0,SSE,20.7,25.3,N/A,,Partly Cloudy,150,2012-10-31 10:55:00
4:15 AM,59.0,50.0,72,29.82,10.0,SSE,20.7,29.9,N/A,,Partly Cloudy,150,2012-10-31 11:15:00
4:35 AM,59.0,50.0,72,29.81,10.0,SE,24.2,33.4,N/A,,Partly Cloudy,140,2012-10-31 11:35:00
4:55 AM,59.0,50.0,72,29.81,10.0,SSE,25.3,33.4,N/A,,Partly Cloudy,150,2012-10-31 11:55:00
5:15 AM,59.0,50.0,72,29.83,10.0,SSE,18.4,29.9,N/A,,Scattered Clouds,150,2012-10-31 12:15:00
5:35 AM,59.0,50.0,72,29.83,10.0,SE,19.6,29.9,N/A,,Mostly Cloudy,140,2012-10-31 12:35:00
5:55 AM,59.0,50.0,72,29.83,10.0,SE,24.2,35.7,N/A,,Overcast,140,2012-10-31 12:55:00
6:15 AM,59.0,50.0,72,29.84,10.0,SE,26.5,33.4,N/A,,Overcast,140,2012-10-31 13:15:00
6:35 AM,59.0,50.0,72,29.83,10.0,SE,25.3,35.7,N/A,,Overcast,140,2012-10-31 13:35:00
6:55 AM,59.0,51.8,77,29.84,10.0,SE,23.0,32.2,N/A,,Overcast,140,2012-10-31 13:55:00
7:15 AM,59.0,51.8,77,29.84,10.0,SE,23.0,31.1,N/A,,Overcast,140,2012-10-31 14:15:00
7:35 AM,59.0,53.6,82,29.84,10.0,SE,24.2,32.2,N/A,,Overcast,130,2012-10-31 14:35:00
7:55 AM,57.2,53.6,88,29.85,10.0,SE,23.0,29.9,N/A,,Overcast,130,2012-10-31 14:55:00
8:15 AM,57.2,53.6,88,29.84,7.0,SE,23.0,31.1,N/A,,Overcast,130,2012-10-31 15:15:00
8:35 AM,57.2,53.6,88,29.85,7.0,SE,25.3,29.9,N/A,,Overcast,130,2012-10-31 15:35:00
8:55 AM,57.2,53.6,88,29.84,10.0,SE,20.7,31.1,N/A,,Overcast,130,2012-10-31 15:55:00
9:15 AM,57.2,55.4,94,29.85,6.0,SE,21.9,28.8,0.01,,Overcast,140,2012-10-31 16:15:00
9:35 AM,55.4,55.4,100,29.84,5.0,SE,21.9,26.5,0.02,,Mostly Cloudy,130,2012-10-31 16:35:00
9:55 AM,55.4,55.4,100,29.85,4.0,SE,17.3,27.6,0.04,,Mostly Cloudy,130,2012-10-31 16:55:00
10:15 AM,55.4,55.4,100,29.84,3.0,ESE,19.6,25.3,0.03,,Mostly Cloudy,120,2012-10-31 17:15:00
10:35 AM,55.4,55.4,100,29.86,4.0,SE,16.1,-,0.06,,Mostly Cloudy,130,2012-10-31 17:35:00
10:55 AM,55.4,55.4,100,29.89,2.5,SE,11.5,-,0.12,,Mostly Cloudy,130,2012-10-31 17:55:00
11:15 AM,55.4,55.4,100,29.90,3.0,ESE,11.5,-,0.04,,Mostly Cloudy,120,2012-10-31 18:15:00
11:35 AM,55.4,55.4,100,29.93,2.0,ESE,5.8,-,0.11,,Mostly Cloudy,120,2012-10-31 18:35:00
11:55 AM,55.4,55.4,100,29.92,7.0,ESE,10.4,-,0.15,,Scattered Clouds,110,2012-10-31 18:55:00
12:15 PM,57.2,57.2,100,29.91,8.0,ESE,10.4,-,0.01,,Partly Cloudy,110,2012-10-31 19:15:00
12:35 PM,55.4,55.4,100,29.90,7.0,East,13.8,-,0.02,,Clear,100,2012-10-31 19:35:00
12:55 PM,57.2,57.2,100,29.89,5.0,ESE,17.3,21.9,0.03,,Clear,110,2012-10-31 19:55:00
1:35 PM,57.2,57.2,100,29.84,7.0,ESE,26.5,32.2,0.03,,Clear,120,2012-10-31 20:35:00
1:55 PM,57.2,57.2,100,29.84,10.0,SE,21.9,28.8,0.03,,Clear,130,2012-10-31 20:55:00
2:15 PM,57.2,57.2,100,29.86,10.0,ESE,15.0,26.5,N/A,,Scattered Clouds,120,2012-10-31 21:15:00
2:35 PM,57.2,55.4,94,29.84,10.0,ESE,16.1,-,N/A,,Scattered Clouds,120,2012-10-31 21:35:00
2:55 PM,59.0,55.4,88,29.85,10.0,ESE,19.6,-,N/A,,Partly Cloudy,120,2012-10-31 21:55:00
3:15 PM,59.0,55.4,88,29.85,10.0,SE,16.1,-,N/A,,Scattered Clouds,140,2012-10-31 22:15:00
3:35 PM,59.0,55.4,88,29.85,10.0,SE,18.4,25.3,N/A,,Mostly Cloudy,140,2012-10-31 22:35:00
3:55 PM,59.0,57.2,94,29.86,7.0,SE,16.1,23.0,N/A,,Overcast,130,2012-10-31 22:55:00
4:15 PM,59.0,57.2,94,29.86,10.0,SE,17.3,-,N/A,,Overcast,130,2012-10-31 23:15:00
4:35 PM,59.0,55.4,88,29.86,10.0,ESE,12.7,17.3,N/A,,Mostly Cloudy,120,2012-10-31 23:35:00
4:55 PM,59.0,55.4,88,29.86,10.0,SE,12.7,-,N/A,,Overcast,130,2012-10-31 23:55:00
5:15 PM,59.0,55.4,88,29.86,10.0,SE,9.2,-,N/A,,Overcast,130,2012-11-01 00:15:00
5:35 PM,59.0,55.4,88,29.87,10.0,ESE,10.4,-,N/A,,Overcast,120,2012-11-01 00:35:00
5:55 PM,59.0,55.4,88,29.87,10.0,East,13.8,-,N/A,,Overcast,100,2012-11-01 00:55:00
6:15 PM,59.0,55.4,88,29.88,10.0,ESE,13.8,-,N/A,,Overcast,110,2012-11-01 01:15:00
6:35 PM,59.0,55.4,88,29.88,10.0,ESE,16.1,-,N/A,,Overcast,120,2012-11-01 01:35:00
6:55 PM,59.0,55.4,88,29.88,10.0,ESE,15.0,-,N/A,,Overcast,120,2012-11-01 01:55:00
7:15 PM,59.0,55.4,88,29.89,10.0,ESE,15.0,-,N/A,,Overcast,120,2012-11-01 02:15:00
7:35 PM,59.0,55.4,88,29.89,10.0,SE,16.1,-,N/A,,Overcast,130,2012-11-01 02:35:00
7:55 PM,59.0,55.4,88,29.89,10.0,SE,17.3,-,N/A,,Overcast,130,2012-11-01 02:55:00
8:15 PM,57.2,55.4,94,29.89,10.0,SE,15.0,-,N/A,,Overcast,140,2012-11-01 03:15:00
8:35 PM,57.2,55.4,94,29.90,10.0,SE,12.7,-,N/A,,Overcast,140,2012-11-01 03:35:00
8:55 PM,57.2,55.4,94,29.90,8.0,SE,12.7,-,N/A,,Overcast,130,2012-11-01 03:55:00
9:15 PM,57.2,55.4,94,29.91,4.0,SE,10.4,-,0.01,,Overcast,140,2012-11-01 04:15:00
9:35 PM,55.4,55.4,100,29.92,4.0,SE,12.7,-,0.02,,Mostly Cloudy,140,2012-11-01 04:35:00
9:55 PM,55.4,55.4,100,29.91,10.0,SE,10.4,-,0.02,,Overcast,130,2012-11-01 04:55:00
10:15 PM,55.4,55.4,100,29.93,3.0,SE,6.9,-,0.07,,Overcast,130,2012-11-01 05:15:00
10:35 PM,55.4,55.4,100,29.93,3.0,SE,4.6,-,0.10,,Overcast,140,2012-11-01 05:35:00
10:55 PM,55.4,55.4,100,29.94,2.0,Calm,Calm,-,0.14,,Overcast,0,2012-11-01 05:55:00
11:15 PM,55.4,55.4,100,29.94,10.0,ESE,3.5,-,N/A,,Overcast,120,2012-11-01 06:15:00
11:35 PM,55.4,55.4,100,29.94,10.0,ESE,4.6,-,N/A,,Overcast,120,2012-11-01 06:35:00
11:55 PM,55.4,55.4,100,29.94,10.0,Calm,Calm,-,N/A,,Overcast,0,2012-11-01 06:55:00